Helena, Ohio
Current Conditions -  °F | °C
As of 1:34 AM on Monday 24 Nov 2014 (Local Time) from KTDZ Reporting Station
Light Rain Light Rain  
Wind Chill: 57°   Ceiling: 2400
Heat Index: 57°   Visibility: 4mi
Dew Point: 53°   Wind: 28mph
Humidity: 87%   Direction: 170°S
Pressure: 29.14"   Gusts: 37mph
Location:  41.34°N, 83.29°W
Report Text: KTDZ 240634Z AUTO 17024G32KT 4SM -RA BR SCT016 BKN024 OVC036 14/12 A2914 RMK AO2 PK WND 18032/0629 RAB01E11B18 P0003 T01390117 TSNO
Loading
Personal Weather Stations






























Interactive Weather Map New forecast layout! Learn more

10-Day Weather Forecast

Advertisements
Track Severe Weather on mobile